Florida AWOS List, Phone Numbers

USA |  
| Search AWOS

Rocky Mountain States: Montana | Wyoming | Colorado | New Mexico

Complete weather reports: Florida

Legend: KFNL = METAR available Follow your local AWOS on AV Mobile = METAR available on AV Mobile
Station Florida Location Frequency Phone
KAQQICAO ID KAQQ Apalachicola, Apalachicola
KAAFFAA ID AAF, ASOS, KAAF 230553Z AUTO 03012KT 10SM CLR 22/12 A3013 Follow KAAF on AV Mobile APALACHICOLA MUNICIPAL AIRPORT 119.925 850-653-8271
KNAEICAO ID KNAE Astor, Bombing Range Detachment Astor
KAVOFAA ID AVO, AWOS-3 AVON PARK 118.725 863-453-4223
KAGRFAA ID AGR Avon Park Gunnery Range
KBOWFAA ID BOW, AWOS-3, KBOW 230555Z AUTO 32004KT 10SM CLR 18/18 A3016 RMK AO2 FZRANO Follow KBOW on AV Mobile Bartow Municipal 123.775 863-533-9004
F95FAA ID F95, AWOS-AV, KCLK 230635Z AUTO 15013G18KT 5SM BR SCT009 16/15 A3000 RMK AO2 Follow  on AV Mobile BLOUNTSTOWN 119.350 850-674-1347
KBCTFAA ID BCT, AWOS-3, KBCT 230247Z VRB05KT 10SM CLR 21/15 A3010 RMK LAST Follow KBCT on AV Mobile Boca Raton, Boca Raton Airport 121.125 561-391-2696
K1J0FAA ID 1J0, K1J0 230458Z AUTO 02006KT 10SM OVC090 21/09 A3020 RMK AO2 SLP184 T02060089 Follow K1J0 on AV Mobile TRI COUNTY AIRPORT
KBKVFAA ID BKV, ASOS, KBKV 230553Z AUTO 00000KT 9SM OVC034 19/18 A3017 RMK AO2 SLP215 T01940178 10211 20194 51001 Follow KBKV on AV Mobile BROOKSVILLE HERNANDO CO AIRPORT 134.725 352-799-5881
K1J4ICAO ID K1J4 Cape San Blas Coast Guard Station
KNZCICAO ID KNZC Cecil, Naval Air Station
KCLWFAA ID CLW, AWOS-3P, KCLW 230555Z AUTO 00000KT 10SM OVC023 20/17 A3015 RMK AO2 Follow KCLW on AV Mobile CLEARWATER 119.225 727-449-2184
2ISFAA ID 2IS, AWOS-3, KCLK 230635Z AUTO 15013G18KT 5SM BR SCT009 16/15 A3000 RMK AO2 Follow  on AV Mobile CLEWISTON 124.175 863-983-7020
KX53ICAO ID KX53 Clewiston
KCOFFAA ID COF, KCOF 230558Z AUTO 08008KT 10SM FEW047 22/20 A3014 RMK AO2 SLPNO T02220200 10226 20217 51006 $ Follow KCOF on AV Mobile Cocoa / Patrick Air Force Base
KXMRFAA ID XMR, KXMR 230558Z AUTO 07006KT 10SM FEW035 BKN060 OVC070 22/17 A3013 RMK AO2 SLPNO T02220172 10225 20213 52006 $ Follow KXMR on AV Mobile Cocoa Beach, Cape Canaveral Air Force Station Skid Strip
KCEWFAA ID CEW, ASOS, KCEW 230553Z AUTO 05006KT 10SM CLR 19/08 A3020 Follow KCEW on AV Mobile CRESTVIEW SIKES AIRPORT 119.275 850-682-1237
KEGIFAA ID EGI, KEGI 230558Z AUTO 04005KT 10SM CLR 19/10 A3017 RMK AO2 SLPNO 60000 T01920099 10265 20190 403150155 51010 $ Follow KEGI on AV Mobile Duke Field / Eglin Auxiliary
KCTYFAA ID CTY, KCTY 230555Z AUTO 06004KT 10SM SCT020 OVC044 18/15 A3019 Follow KCTY on AV Mobile CROSS CITY AIRPORT
KCGCFAA ID CGC, AWOS-3, KCGC 230555Z AUTO 00000KT 5SM BR BKN047 OVC055 17/17 A3018 RMK AO2 Follow KCGC on AV Mobile CRYSTAL RIVER 118.325 352-563-6600
KDABFAA ID DAB, ASOS, KDAB 230553Z 31003KT 9SM RA BKN031 BKN090 19/18 A3017 Follow KDAB on AV Mobile DAYTONA BEACH INTERNATIONAL 386-253-7469
54JFAA ID 54J, AWOS-3P, KCLK 230635Z AUTO 15013G18KT 5SM BR SCT009 16/15 A3000 RMK AO2 Follow  on AV Mobile DEFUNIAK SPRINGS 118.725 850-892-0147
KDEDFAA ID DED, AWOS-3, KDED 230555Z AUTO 34003KT 10SM SCT024 SCT029 OVC080 19/17 A3016 RMK AO2 Follow KDED on AV Mobile DELAND 119.575 386-740-5811
KDTSFAA ID DTS, ASOS, KDTS 230553Z AUTO 02004KT 10SM SCT085 22/14 A3017 RMK AO2 SLP215 T02170139 10244 20217 402780200 51012 TSNO Follow KDTS on AV Mobile DESTIN-FT WALTON BEACH AIRPORT 133.925 850-654-7128
KX91ICAO ID KX91 Egmont Key Coast Guard Station
KFHBFAA ID FHB, AWOS-3, KFHB 211656Z AUTO 25011G15KT 10SM CLR 29/15 A3010 RMK AO1 Follow KFHB on AV Mobile FERNANDINA BEACH 118.075 904-277-7323
KFXEFAA ID FXE, ASOS, KFXE 230553Z 28006KT 10SM CLR 20/14 A3013 Follow KFXE on AV Mobile FORT LAUDERDALE EXECUTIVE 954-772-2537
KFLLFAA ID FLL, ASOS, KFLL 230553Z 26007KT 10SM CLR 21/14 A3012 Follow KFLL on AV Mobile FORT LAUDERDALE/HOLLYWOOD 954-359-7857
KFMYFAA ID FMY, ASOS, KFMY 230553Z AUTO 35006KT 10SM CLR 20/18 A3013 RMK AO2 SLP205 T02000178 10228 20200 50006 Follow KFMY on AV Mobile FORT MYERS PAGE FIELD 239-936-2318
KRSWFAA ID RSW, ASOS, KRSW 230553Z AUTO 34005KT 10SM CLR 19/17 A3014 Follow KRSW on AV Mobile FORT MYERS SW FL INTERNATIONAL AIRPORT 239-561-0966
KX82ICAO ID KX82 Fort Pierce Coast Guard Station
KFPRFAA ID FPR, ASOS, KFPR 230553Z AUTO 05003KT 10SM BKN070 22/19 A3012 Follow KFPR on AV Mobile FORT PIERCE ST LUCIE 772-489-4281
KX86ICAO ID KX86 Fowey Rocks Coast Guard Station
KX89ICAO ID KX89 Ft. Myers Beach Coast Guard Station
KGNVFAA ID GNV, ASOS, KGNV 230553Z AUTO 03005KT 10SM SCT055 BKN085 17/14 A3019 Follow KGNV on AV Mobile GAINESVILLE REGIONAL AIRPORT 352-335-8672
KHWOFAA ID HWO, ASOS, KHWO 230553Z AUTO 29006KT 10SM CLR 19/14 A3015 RMK AO2 SLP208 T01940144 10239 20194 51010 Follow KHWO on AV Mobile HOLLYWOOD NORTH PERRY AIRPORT 954-983-5904
X51FAA ID X51, AWOS-3, KCLK 230635Z AUTO 15013G18KT 5SM BR SCT009 16/15 A3000 RMK AO2 Follow  on AV Mobile HOMESTEAD 118.375 (305) 247-2791
KHSTFAA ID HST, KHST 230558Z AUTO 00000KT 10SM CLR 17/16 A3012 RMK AO2 SLPNO T01680159 10212 20166 50004 Follow KHST on AV Mobile Homestead Air Force Base
KIMMFAA ID IMM, AWOS-3, KIMM 230555Z AUTO 00000KT 4SM BR CLR 15/15 A3012 RMK AO2 Follow KIMM on AV Mobile IMMOKALEE 118.525 239-657-2038
KINFFAA ID INF, AWOS-3, KINF 230555Z AUTO 03004KT 10SM OVC047 19/17 A3018 RMK AO2 Follow KINF on AV Mobile INVERNESS 119.975 352-341-0264
KX84ICAO ID KX84 Islamorada Coast Guard Station
KHEGFAA ID HEG, AWOS-3 JACKSONVILLE 119.275 904-695-0334
KCRGFAA ID CRG, ASOS, KCRG 230553Z AUTO 05007KT 10SM CLR 18/14 A3021 RMK AO2 SLP229 T01780144 10183 20178 51012 Follow KCRG on AV Mobile JACKSONVILLE CRAIG MUN 904-646-4670
KJAXFAA ID JAX, ASOS, KJAX 230556Z 06009KT 10SM FEW170 SCT250 17/14 A3021 Follow KJAX on AV Mobile JACKSONVILLE INTERNATIONAL 904-741-4304
KNIPFAA ID NIP, KNIP 230553Z 04008KT 10SM FEW030 BKN250 19/14 A3021 RMK AO2 SLP226 T01940144 10200 20194 51010 Follow KNIP on AV Mobile JACKSONVILLE NAVAL AIR STN
KVQQFAA ID VQQ, AWOS-3, KVQQ 230555Z AUTO 00000KT 10SM OVC032 16/13 A3021 RMK AO2 Follow KVQQ on AV Mobile Jacksonville, Cecil Field Airport 125.275 904-778-6934
KNENFAA ID NEN NOLF WHITEHOUSE FIELD, FL
KX80ICAO ID KX80 Jupiter Inlet Coast Guard Station
KEYWFAA ID EYW, ASOS, KEYW 230553Z AUTO 36007KT 10SM CLR 21/16 A3014 Follow KEYW on AV Mobile KEY WEST INTERNATIONAL AIRPORT 119.65 305-292-4046
KNQXFAA ID NQX, KNQX 230553Z AUTO 35008KT CLR 21/16 A3014 RMK AO2 SLP204 T02060156 10217 20200 50003 $ Follow KNQX on AV Mobile KEY WEST NAVAL AIR STATION
K42JFAA ID 42J, AWOS-3, K42J 230555Z AUTO 03005KT 10SM CLR 17/15 A3020 RMK AO1 TSNO Follow K42J on AV Mobile KEYSTONE HEIGHTS 124.275 352-473-8273
KLCQFAA ID LCQ, AWOS-3, KLCQ 230555Z AUTO 04004KT 10SM CLR 15/12 A3021 RMK AO2 Follow KLCQ on AV Mobile LAKE CITY 120.675 386-754-9366
X07FAA ID X07, AWOS-3, KCLK 230635Z AUTO 15013G18KT 5SM BR SCT009 16/15 A3000 RMK AO2 Follow  on AV Mobile LAKE WALES 124.225 863-678-1334
KX81ICAO ID KX81 Lake Worth Inlet
KLALFAA ID LAL, AWOS-3PT, KLAL 230555Z AUTO 36003KT 7SM CLR 18/17 A3016 RMK AO2 Follow KLAL on AV Mobile Lakeland Regional 118.025 863-834-2030
KLEEFAA ID LEE, ASOS, KLEE 230553Z AUTO 03005KT 10SM SCT050 BKN065 21/17 A3018 RMK AO2 SLP217 T02060167 10244 20206 51005 Follow KLEE on AV Mobile LEESBURG REGIONAL AIRPORT 134.325 352-787-1565
K24JFAA ID 24J, AWOS-3, K24J 230555Z AUTO 00000KT 10SM SCT017 BKN065 OVC085 17/12 A3023 RMK A01 Follow K24J on AV Mobile LIVE OAK 118.225 386-362-1731
KX88ICAO ID KX88 Marathon Coast Guard Station
KMTHFAA ID MTH, ASOS, KMTH 230553Z AUTO 32003KT 10SM CLR 22/17 A3013 RMK AO2 SLP203 T02170172 10228 20211 50002 $ Follow KMTH on AV Mobile MARATHON AIRPORT 135.525 305-743-8373
KMKYFAA ID MKY, AWOS-3, KMKY 221455Z AUTO 24004KT 10SM CLR 23/14 A3014 RMK AO1 52007 Follow KMKY on AV Mobile MARCO ISLAND 120.075 239-394-8187
KMAIFAA ID MAI, ASOS, KMAI 230553Z AUTO 02006KT 10SM BKN090 20/07 A3019 RMK AO2 SLP221 T02000072 10267 20200 403170167 51017 Follow KMAI on AV Mobile MARIANNA MUNICIPAL AIRPORT 133.525 850-482-6082
KHRTFAA ID HRT, KHRT 230558Z 02008KT 10SM CLR 21/09 A3015 RMK AO2A SLP213 P0000 60000 T02090089 10239 20201 402900181 51009 $ Follow KHRT on AV Mobile Hurlburt Field
KNRBFAA ID NRB, KNRB 230552Z AUTO 04012KT 10SM OVC035 18/15 A3021 RMK AO2 SLP229 T01830150 10189 20183 51012 Follow KNRB on AV Mobile MAYPORT NAVAL AIR FACILITY
KMLBFAA ID MLB, ASOS, KMLB 230553Z AUTO 06005KT 10SM BKN040 23/19 A3014 Follow KMLB on AV Mobile MELBOURNE INTERNATIONAL 321-723-7403
KCOIFAA ID COI, AWOS-3 Merritt Island, Merritt Island Airport 119.025 321-986-8864
KTNTFAA ID TNT, AWOS-3 MIAMI 119.075 (239) 695-9198
KX87ICAO ID KX87 Miami Beach Coast Guard Station
KAMXICAO ID KAMX Miami Nexrad
KTMBFAA ID TMB, ASOS, KTMB 230553Z AUTO 31004KT 10SM CLR 16/13 A3014 Follow KTMB on AV Mobile KENDALL-TAMIAMI EXEC AIRPORT 305-235-1332
KMIAFAA ID MIA, ASOS, KMIA 230553Z 27004KT 10SM CLR 20/14 A3014 Follow KMIA on AV Mobile MIAMI INTERNATIONAL AIRPORT 305-870-0235
KOPFFAA ID OPF, KOPF 230553Z AUTO 29006KT 10SM CLR 19/14 A3014 Follow KOPF on AV Mobile MIAMI OPA LOCKA AIRPORT
KNFJFAA ID NFJ CHOCTAW, WHITING FIELD, NOLF
KNSEFAA ID NSE, KNSE 230556Z AUTO 04004KT 10SM -RA CLR 19/11 A3018 RMK AO2 SLP205 P0000 60000 T01890106 10261 20189 403110161 51011 Follow KNSE on AV Mobile MILTON WHITING FIELD (NORTH)
KNDZFAA ID NDZ, KNDZ 230556Z AUTO 04008KT 10SM CLR 21/11 A3018 RMK AO2 SLP204 T02110111 10278 20211 403280178 51010 $ Follow KNDZ on AV Mobile MILTON WHITING FIELD (SOUTH)
KAPFFAA ID APF, ASOS, KAPF 230553Z AUTO 33004KT 10SM SCT012 20/19 A3014 Follow KAPF on AV Mobile NAPLES MUNICIPAL AIRPORT 239-643-9886
KRRFICAO ID KRRF New Port Richey, Tampa Bay Executive Airport
KEVBFAA ID EVB, AWOS-3, KEVB 230147Z 04004KT 10SM FEW040 20/18 A3014 RMK LAST Follow KEVB on AV Mobile New Smyrna Beach, New Smyrna Beach Municipal Airport 124.625 386-409-4705
KOCFFAA ID OCF, AWOS-3, KOCF 230555Z AUTO 00000KT 10SM OVC049 19/15 A3018 RMK AO1 10210 20190 52003 Follow KOCF on AV Mobile Ocala, Ocala International Airport-Jim Taylor Field 128.125 352-237-8525
KOBEFAA ID OBE, AWOS-3, KOBE 230555Z AUTO 02005KT 10SM CLR A3013 RMK AO2 Follow KOBE on AV Mobile Okeechobee County Airport 118.675 863-467-1148
KORLFAA ID ORL, ASOS, KORL 230553Z AUTO 36005KT 10SM SCT028 BKN034 OVC060 21/18 A3016 RMK AO2 SLP216 T02110178 10239 20211 51005 Follow KORL on AV Mobile ORLANDO EXECUTIVE AIRPORT 407-658-6753
KMCOFAA ID MCO, ASOS, KMCO 230553Z 36007KT 10SM BKN060 OVC250 21/17 A3016 Follow KMCO on AV Mobile ORLANDO INTERNATIONAL AIRPORT 407-855-5235
KSFBFAA ID SFB, ASOS, KSFB 230553Z AUTO 36004KT 10SM SCT060 BKN075 BKN090 21/17 A3016 Follow KSFB on AV Mobile ORLANDO SANFORD AIRPORT 407-321-9384
KISMFAA ID ISM, AWOS-3, KISM 230556Z AUTO 05003KT 10SM FEW050 SCT070 21/18 A3016 RMK AO2 SLP216 T02110178 10272 20211 53002 Follow KISM on AV Mobile Orlando, Kissimmee Municipal Airport 128.775 407-847-0533
KOMNFAA ID OMN, AWOS-3, KOMN 222250Z 06010KT 10SM SCT085 23/18 A3005 RMK LAST Follow KOMN on AV Mobile Ormond Beach, Ormond Beach Municipal Airport 118.475 386-615-7084
K28JFAA ID 28J, AWOS-3, K28J 230555Z AUTO 01004KT 10SM FEW029 OVC070 17/17 A3019 RMK AO2 Follow K28J on AV Mobile PALATKA 119.92 386-312-2212
KFINFAA ID FIN, AWOS-3, KFIN 222250Z 06010G15KT 10SM CLR 22/17 A3006 Follow KFIN on AV Mobile PALM COAST 128.325 386-437-7334
KECPFAA ID ECP, ASOS, KECP 230553Z AUTO 36007KT 10SM BKN090 21/10 A3016 Follow KECP on AV Mobile PANAMA CITY 119.975 850-235-7857
KPFNICAO ID KPFN, KPFN 030253Z VRB03KT 10SM FEW023 25/23 A2989 Follow KPFN on AV Mobile PANAMA CITY-BAY CTY INTERNATIONAL
KPAMFAA ID PAM, KPAM 230556Z AUTO 03006KT 10SM CLR 21/12 A3016 RMK AO2 SLPNO T02050117 10216 20195 402500192 51009 $ Follow KPAM on AV Mobile Tyndall Air Force Base
KPNSFAA ID PNS, ASOS, KPNS 230553Z AUTO 04006KT 10SM CLR 22/11 A3017 Follow KPNS on AV Mobile PENSACOLA REGIONAL AIRPORT 850-436-4799
KNPAFAA ID NPA, KNPA 230556Z AUTO 03004KT CLR 19/13 A3016 RMK AO2 SLP214 T01890133 10250 20183 403170183 50006 $ Follow KNPA on AV Mobile Pensacola, Naval Air Station
K40JFAA ID 40J, AWOS-3PT, K40J 230555Z AUTO 08004KT 10SM CLR 19/13 A3020 RMK AO2 T01880133 10218 20180 Follow K40J on AV Mobile PERRY-FOLEY AIRPORT 118.375 850-838-3526
FA54FAA ID FA54, Belfort CORAL CREEK
KPCMFAA ID PCM, AWOS-3, KPCM 230555Z AUTO 00000KT 10SM CLR 19/18 A3017 RMK AO2 Follow KPCM on AV Mobile Plant City, Plant City Municipal Airport 120.025 813-764-8259
KPMPFAA ID PMP, ASOS, KPMP 230553Z AUTO 28004KT 10SM CLR 21/14 A3013 RMK AO2 SLP203 T02060144 10244 20206 51008 Follow KPMP on AV Mobile POMPANO BEACH AIRPARK 954-783-3720
K1J3ICAO ID K1J3 Ponce De Leon Inlet
KPGDFAA ID PGD, ASOS, KPGD 230553Z AUTO 33005KT 8SM CLR 18/17 A3016 RMK AO2 SLP212 T01780167 10211 20172 50004 Follow KPGD on AV Mobile PUNTA GORDA CHARLOTTE COUNTY 135.675 941-639-0076
K2J9FAA ID 2J9, AWOS-3, K2J9 041515Z AUTO CLR 09/00 A3037 RMK AO1 Follow K2J9 on AV Mobile QUINCY 118.975 (850) 627-6264
K1J5ICAO ID K1J5 Santa Rosa Coast Guard Station
KSRQFAA ID SRQ, ASOS, KSRQ 230553Z 05006KT 10SM FEW012 BKN024 18/17 A3014 Follow KSRQ on AV Mobile SARASOTA/BRADENTON INTERNATIONAL . 124.375 941-359-0117
KSEFFAA ID SEF, AWOS-3 SEBRING 119.475 863-655-6424
KSGJFAA ID SGJ, AWOS-3, KSGJ 230558Z AUTO 04007KT 10SM BKN033 OVC090 19/17 A3020 RMK AO2 SLP225 T01940167 10200 20194 51006 Follow KSGJ on AV Mobile St. Augustine, St. Augustine Airport 904-824-7084
KPIEFAA ID PIE, ASOS, KPIE 230553Z AUTO 02004KT 10SM OVC025 21/18 A3015 Follow KPIE on AV Mobile ST PETERSBURG/CLEARWATER 727-531-3456
KSPGFAA ID SPG, ASOS, KSPG 230553Z AUTO 02004KT 10SM SCT022 OVC029 21/18 A3014 RMK AO2 SLP205 T02060183 10217 20206 50010 Follow KSPG on AV Mobile ST PETERSBURG WHITTED AIRPORT 118.875 727-821-4334
KSUAFAA ID SUA, AWOS-3, KSUA 230555Z AUTO 11003KT 10SM CLR 22/18 A3013 RMK AO2 Follow KSUA on AV Mobile Stuart, Witham Field Airport 772-692-7399
KTLHFAA ID TLH, ASOS, KTLH 230553Z AUTO 09010KT 9SM BKN100 21/14 A3019 Follow KTLH on AV Mobile TALLAHASSEE REGIONAL AIRPORT 850-576-3665
KTBWICAO ID KTBW Tampa Bay Area
KMCFFAA ID MCF, KMCF 230558Z AUTO 04003KT 10SM OVC023 20/19 A3015 RMK AO2 SLPNO T01970192 10211 20195 50008 $ Follow KMCF on AV Mobile Macdill Air Force Base, Fl.
KTPAFAA ID TPA, ASOS, KTPA 230553Z 36004KT 10SM OVC024 21/18 A3016 Follow KTPA on AV Mobile TAMPA INTERNATIONAL AIRPORT 813-873-7228
KTPFFAA ID TPF, AWOS-3, KTPF 230555Z AUTO 01003KT 10SM OVC025 21/19 A3016 RMK AO2 Follow KTPF on AV Mobile Tampa, Peter O Knight Airport 118.925 813-251-6824
KVDFFAA ID VDF, AWOS-3, KVDF 230555Z AUTO 00000KT 5SM BR SCT026 19/17 A3017 RMK AO2 Follow KVDF on AV Mobile Tampa, Vandenberg Airport 121.125 813-630-0924
KVLGICAO ID KVLG The Villages
KVVGICAO ID KVVG, KVVG 230550Z AUTO 00000KT 10SM 20/18 A3008 RMK A01 Follow KVVG on AV Mobile The Villages
KX68ICAO ID KX68 Titusville, NASA Shuttle Landing Facility
KTIXFAA ID TIX, KTIX 230050Z 06010KT 7SM SCT085 22/19 A3009 RMK LAST Follow KTIX on AV Mobile Titusville
KX21FAA ID X21, AWOS-3 Titusville, Arthur Dunn Air Park 119.725 321-385-0383
KTTSFAA ID TTS, KTTS 230558Z AUTO 09006KT 10SM SCT034 SCT045 BKN075 21/19 A3014 RMK AO2 CIG 049 RWY15 SLPNO T02140185 10218 20191 51007 $ Follow KTTS on AV Mobile Titusville, NASA Shuttle Landing Facility
KVPSFAA ID VPS, KVPS 230555Z 03008KT 10SM FEW160 20/11 A3016 RMK AO2A SLP218 T02040106 10239 20202 403040167 51008 $ Follow KVPS on AV Mobile Valparaiso / Eglin Air Force Base
KVNCFAA ID VNC, AWOS-3, KVNC 230555Z AUTO 04005KT 10SM BKN020 19/18 A3016 RMK AO2 Follow KVNC on AV Mobile VENICE 119.275
KX90ICAO ID KX90 Venice Long Range Navigation
KVRBFAA ID VRB, ASOS, KVRB 230553Z AUTO 03003KT 9SM SCT026 BKN035 22/19 A3013 Follow KVRB on AV Mobile VERO BEACH MUNICIPAL AIRPORT 772-978-9535
F45FAA ID F45, AWOS-3, KCLK 230635Z AUTO 15013G18KT 5SM BR SCT009 16/15 A3000 RMK AO2 Follow  on AV Mobile WEST PALM BEACH 119.975 561-630-6932
KLNAFAA ID LNA, AWOS-3 WEST PALM BEACH 119.925 561-964-0308
KPBIFAA ID PBI, ASOS, KPBI 230553Z 19004KT 10SM FEW250 19/14 A3013 Follow KPBI on AV Mobile PALM BEACH INTERNATIONAL 123.75 561-683-2548
FD38FAA ID FD38, Belfort WELLINGTON AERO CLUB
KX60FAA ID X60, AWOS-3, KX60 230555Z AUTO 00000KT 10SM FEW048 20/17 A3018 RMK A01 Follow KX60 on AV Mobile WILLISTON 118.425 352-528-9949
KGIFFAA ID GIF, ASOS, KGIF 230553Z AUTO 33003KT 10SM CLR 18/17 A3017 RMK AO2 SLP212 T01830167 10250 20183 51003 Follow KGIF on AV Mobile WINTER HAVENS GILBERT AIRPORT 133.675 863-956-2097
KZPHFAA ID ZPH, ASOS, KZPH 230555Z AUTO 00000KT 7SM CLR 18/17 A3017 RMK AO2 T01800173 10222 20180 402870106 Follow KZPH on AV Mobile ZEPHYRHILLS 118.975 813-780-0031

Click on the AV Mobile icon AV Mobile icon by any station to follow that AWOS feed on AirportView.net Mobile.

Leaders in ADS-B Avemco Insurance Company